CheckWX is a tool to help pilots better visualize weather data.  It is not intended as a substitute for an official pre-flight weather briefing.

02:47:42 UTC

KIOW METAR
Iowa City Municipal Airport
Iowa City, Iowa, USA
Current

25 mins ago

KIOW 180223Z AUTO 02008KT 3SM -SN BR BKN015 BKN027 OVC033 M04/M06 A2999 RMK AO2 P0000 T10391061
Observed
Feb-18 @ 02:23 UTC
Wind
  • 020° at 8 KTS
Visibility
3 SM
Flight Rules
MVFR
Conditions
Light Snow, Mist
Cloud Levels
  • Broken at 1,500' AGL
  • Broken at 2,700' AGL
  • Overcast at 3,300' AGL
Temperature
-4°C / 25°F
Dewpoint
-6°C / 21°F
Humidity
86%
Altimeter
29.99" Hg
Pressure
1015.62 hPa
Current Rain
0.01"
Previous

56 mins ago

KIOW 180152Z AUTO 36008KT 2SM -SN BR SCT013 OVC018 M03/M06 A2998 RMK AO2 SLP160 P0001 T10331056
Observed
Feb-18 @ 01:52 UTC
Wind
  • 360° at 8 KTS
Visibility
2 SM
Flight Rules
IFR
Conditions
Light Snow, Mist
Cloud Levels
  • Scattered at 1,300' AGL
  • Overcast at 1,800' AGL
Temperature
-3°C / 27°F
Dewpoint
-6°C / 21°F
Humidity
80%
Altimeter
29.98" Hg
Pressure
1016 hPa
Current Rain
0.01"
Previous

1 hour ago

KIOW 180133Z AUTO 35006KT 2SM -SN BR BKN012 OVC017 M03/M05 A2997 RMK AO2 P0001 T10331050
Observed
Feb-18 @ 01:33 UTC
Wind
  • 350° at 6 KTS
Visibility
2 SM
Flight Rules
IFR
Conditions
Light Snow, Mist
Cloud Levels
  • Broken at 1,200' AGL
  • Overcast at 1,700' AGL
Temperature
-3°C / 27°F
Dewpoint
-5°C / 23°F
Humidity
86%
Altimeter
29.97" Hg
Pressure
1014.92 hPa
Current Rain
0.01"